createdAt,value
2023-04-18T00:01:34.719Z,7.95
2023-04-18T00:04:36.941Z,8.05
2023-04-18T00:07:39.314Z,7.98
2023-04-18T00:10:41.627Z,7.94
2023-04-18T00:13:44.428Z,7.97
2023-04-18T00:16:46.786Z,8.01
2023-04-18T00:19:49.054Z,7.96
2023-04-18T00:22:55.045Z,8.06
2023-04-18T00:25:57.389Z,8.07
2023-04-18T00:28:59.790Z,8.08
2023-04-18T00:32:01.815Z,8.11
2023-04-18T00:35:04.243Z,8.08
2023-04-18T00:38:06.267Z,7.97
2023-04-18T00:41:08.203Z,7.87
2023-04-18T00:44:10.140Z,7.88
2023-04-18T00:47:11.968Z,7.82
2023-04-18T00:50:14.820Z,7.81
2023-04-18T00:53:16.827Z,7.75
2023-04-18T00:56:18.887Z,7.68
2023-04-18T00:59:22.302Z,7.76
2023-04-18T01:02:26.268Z,7.71
2023-04-18T01:05:28.399Z,7.69
2023-04-18T01:08:31.506Z,7.56
2023-04-18T01:11:33.582Z,7.45
2023-04-18T01:14:35.523Z,7.35
2023-04-18T01:17:38.538Z,7.33
2023-04-18T01:20:43.845Z,7.36
2023-04-18T01:23:48.021Z,7.37
2023-04-18T01:26:50.006Z,7.31
2023-04-18T01:29:51.950Z,7.24
2023-04-18T01:32:54.108Z,7.15
2023-04-18T01:35:56.060Z,7.18
2023-04-18T01:38:58.790Z,7.16
2023-04-18T01:42:02.091Z,7.17
2023-04-18T01:45:05.738Z,7.33
2023-04-18T01:48:07.696Z,7.22
2023-04-18T01:51:09.536Z,7.36
2023-04-18T01:54:11.551Z,7.35
2023-04-18T01:57:13.748Z,7.37
2023-04-18T02:00:15.938Z,7.38
2023-04-18T02:03:18.103Z,7.42
2023-04-18T02:06:20.062Z,7.49
2023-04-18T02:09:22.015Z,7.40
2023-04-18T02:12:24.352Z,7.41
2023-04-18T02:15:26.252Z,7.40
2023-04-18T02:18:28.335Z,7.47
2023-04-18T02:21:30.618Z,7.49
2023-04-18T02:24:32.468Z,7.57
2023-04-18T02:27:34.298Z,7.46
2023-04-18T02:30:36.377Z,7.48
2023-04-18T02:33:38.229Z,7.60
2023-04-18T02:36:40.100Z,7.73
2023-04-18T02:39:41.947Z,7.69
2023-04-18T02:42:44.521Z,7.72
2023-04-18T02:45:46.518Z,7.72
2023-04-18T02:48:48.354Z,7.69
2023-04-18T02:51:50.439Z,7.72
2023-04-18T02:54:52.618Z,7.76
2023-04-18T02:57:54.493Z,7.71
2023-04-18T03:00:56.871Z,7.68
2023-04-18T03:03:59.222Z,7.63
2023-04-18T03:07:01.402Z,7.53
2023-04-18T03:10:03.778Z,7.47
2023-04-18T03:13:06.555Z,7.42
2023-04-18T03:16:08.658Z,7.44
2023-04-18T03:19:10.594Z,7.50
2023-04-18T03:22:14.075Z,7.46
2023-04-18T03:25:17.073Z,7.42
2023-04-18T03:28:19.161Z,7.39
2023-04-18T03:31:21.206Z,7.48
2023-04-18T03:34:23.326Z,7.52
2023-04-18T03:37:25.553Z,7.52
2023-04-18T03:40:27.512Z,7.56
2023-04-18T03:43:29.613Z,7.56
2023-04-18T03:46:31.561Z,7.54
2023-04-18T03:49:33.562Z,7.56
2023-04-18T03:52:35.620Z,7.60
2023-04-18T03:55:37.548Z,7.65
2023-04-18T03:58:39.521Z,7.64
2023-04-18T04:01:41.429Z,7.71
2023-04-18T04:04:43.567Z,7.77
2023-04-18T04:07:45.505Z,7.84
2023-04-18T04:10:47.439Z,7.87
2023-04-18T04:13:49.810Z,7.92
2023-04-18T04:16:52.064Z,7.92
2023-04-18T04:19:54.074Z,8.03
2023-04-18T04:22:56.986Z,8.07
2023-04-18T04:25:59.462Z,8.19
2023-04-18T04:29:02.669Z,8.11
2023-04-18T04:32:05.791Z,8.11
2023-04-18T04:35:08.657Z,8.14
2023-04-18T04:38:12.436Z,8.17
2023-04-18T04:41:15.008Z,8.05
2023-04-18T04:44:18.076Z,8.02
2023-04-18T04:47:20.513Z,7.95
2023-04-18T04:50:22.665Z,8.07
2023-04-18T04:53:30.376Z,8.17
2023-04-18T04:56:33.232Z,8.30
2023-04-18T04:59:35.556Z,8.44
2023-04-18T05:02:37.794Z,8.66
2023-04-18T05:05:40.299Z,8.77
2023-04-18T05:08:42.972Z,8.89
2023-04-18T05:11:46.544Z,8.98
2023-04-18T05:14:48.983Z,9.07
2023-04-18T05:17:51.439Z,8.93
2023-04-18T05:20:53.786Z,9.03
2023-04-18T05:23:57.942Z,9.06
2023-04-18T05:27:00.262Z,9.15
2023-04-18T05:30:02.546Z,9.18
2023-04-18T05:33:05.551Z,9.32
2023-04-18T05:36:08.854Z,9.52
2023-04-18T05:39:11.604Z,9.73
2023-04-18T05:42:13.913Z,10.32
2023-04-18T05:45:16.320Z,10.78
2023-04-18T05:48:18.788Z,11.48
2023-04-18T05:51:22.045Z,13.19
2023-04-18T05:54:27.620Z,13.58
2023-04-18T05:57:29.461Z,13.83
2023-04-18T06:00:31.634Z,14.62
2023-04-18T06:03:38.996Z,14.59
2023-04-18T06:06:41.172Z,15.04
2023-04-18T06:09:43.207Z,15.11
2023-04-18T06:12:45.364Z,15.06
2023-04-18T06:15:47.431Z,15.55
2023-04-18T06:18:49.331Z,15.81
2023-04-18T06:21:52.163Z,15.59
2023-04-18T06:24:55.869Z,15.97
2023-04-18T06:27:57.929Z,16.79
2023-04-18T06:30:59.811Z,16.15
2023-04-18T06:34:01.908Z,16.31
2023-04-18T06:37:04.010Z,14.82
2023-04-18T06:40:06.605Z,15.36
2023-04-18T06:43:08.559Z,15.70
2023-04-18T06:46:10.795Z,14.05
2023-04-18T06:49:12.776Z,12.80
2023-04-18T06:52:14.662Z,12.93
2023-04-18T06:55:16.750Z,13.51
2023-04-18T06:58:18.613Z,14.33
2023-04-18T07:01:21.107Z,15.88
2023-04-18T07:04:23.911Z,16.44
2023-04-18T07:07:26.503Z,17.71
2023-04-18T07:10:28.664Z,16.82
2023-04-18T07:13:30.834Z,16.50
2023-04-18T07:16:32.837Z,14.97
2023-04-18T07:19:34.798Z,15.19
2023-04-18T07:22:36.771Z,14.79
2023-04-18T07:25:39.057Z,16.70
2023-04-18T07:28:41.262Z,17.47
2023-04-18T07:31:43.182Z,18.33
2023-04-18T07:34:45.192Z,18.13
2023-04-18T07:37:47.125Z,15.93
2023-04-18T07:40:59.877Z,14.53
2023-04-18T07:44:02.527Z,13.78
2023-04-18T07:47:07.174Z,14.11
2023-04-18T07:50:10.269Z,13.87
2023-04-18T07:53:12.196Z,14.33
2023-04-18T07:56:14.581Z,13.78
2023-04-18T07:59:16.757Z,14.00
2023-04-18T08:02:19.011Z,15.59
2023-04-18T08:05:21.100Z,17.48
2023-04-18T08:08:22.935Z,17.49
2023-04-18T08:11:24.924Z,17.61
2023-04-18T08:14:26.931Z,15.32
2023-04-18T08:17:28.972Z,14.16
2023-04-18T08:20:31.201Z,14.08
2023-04-18T08:23:34.256Z,13.97
2023-04-18T08:26:36.387Z,13.62
2023-04-18T08:29:38.297Z,12.85
2023-04-18T08:32:40.572Z,12.87
2023-04-18T08:35:43.099Z,12.79
2023-04-18T08:38:45.004Z,13.00
2023-04-18T08:41:53.879Z,13.05
2023-04-18T08:44:56.103Z,13.21
2023-04-18T08:48:01.458Z,13.09
2023-04-18T08:51:05.030Z,14.97
2023-04-18T08:54:08.114Z,15.51
2023-04-18T08:57:16.464Z,14.63
2023-04-18T09:00:18.702Z,14.06
2023-04-18T09:03:40.706Z,14.37
2023-04-18T09:06:53.062Z,14.18
2023-04-18T09:09:59.858Z,13.76
2023-04-18T09:13:04.412Z,12.79
2023-04-18T09:16:07.295Z,12.72
2023-04-18T09:19:11.187Z,14.02
2023-04-18T09:22:17.662Z,14.01
2023-04-18T09:25:42.724Z,14.83
2023-04-18T09:28:53.954Z,16.34
2023-04-18T09:32:01.528Z,16.78
2023-04-18T09:35:05.561Z,16.97
2023-04-18T09:38:08.347Z,16.13
2023-04-18T09:41:11.870Z,15.83
2023-04-18T09:44:15.826Z,15.77
2023-04-18T09:47:17.891Z,17.04
2023-04-18T09:50:22.247Z,16.56
2023-04-18T14:43:50.267Z,14.87
2023-04-18T14:46:52.581Z,15.01
2023-04-18T14:49:54.571Z,15.01
2023-04-18T14:52:56.537Z,14.81
2023-04-18T14:55:58.669Z,14.81
2023-04-18T14:59:02.418Z,14.59
2023-04-18T15:02:05.241Z,14.29
2023-04-18T15:05:08.619Z,14.06
2023-04-18T15:08:14.564Z,13.91
2023-04-18T15:11:16.704Z,13.99
2023-04-18T15:14:18.812Z,13.86
2023-04-18T15:17:20.896Z,13.93
2023-04-18T15:20:24.002Z,13.76
2023-04-18T15:23:26.217Z,13.45
2023-04-18T15:26:28.164Z,13.12
2023-04-18T15:29:30.344Z,13.24
2023-04-18T15:32:32.837Z,13.22
2023-04-18T15:35:34.915Z,12.89
2023-04-18T15:38:37.636Z,12.88
2023-04-18T15:41:42.086Z,12.88
2023-04-18T15:44:44.459Z,12.85
2023-04-18T15:47:46.681Z,12.99
2023-04-18T15:50:52.273Z,13.03
2023-04-18T15:53:55.260Z,12.86
2023-04-18T15:56:58.284Z,12.62
2023-04-18T16:00:00.441Z,12.74
2023-04-18T16:03:04.932Z,12.68
2023-04-18T16:06:07.158Z,12.36
2023-04-18T16:09:09.916Z,12.27
2023-04-18T16:12:11.770Z,12.16
2023-04-18T16:15:13.767Z,12.11
2023-04-18T16:18:15.772Z,12.09
2023-04-18T16:21:18.642Z,12.01
2023-04-18T16:24:20.549Z,11.96
2023-04-18T16:27:22.541Z,11.86
2023-04-18T16:30:24.480Z,11.82
2023-04-18T16:33:26.548Z,11.82
2023-04-18T16:36:28.931Z,11.63
2023-04-18T16:39:31.196Z,11.59
2023-04-18T16:42:33.889Z,11.46
2023-04-18T16:45:35.967Z,11.48
2023-04-18T16:48:38.761Z,11.41
2023-04-18T16:51:41.025Z,11.33
2023-04-18T16:54:43.647Z,11.19
2023-04-18T16:57:45.579Z,11.21
2023-04-18T17:00:47.888Z,11.16
2023-04-18T17:03:50.371Z,11.11
2023-04-18T17:06:52.585Z,11.05
2023-04-18T17:09:54.521Z,10.84
2023-04-18T17:12:56.592Z,10.91
2023-04-18T17:15:58.665Z,10.91
2023-04-18T17:19:00.691Z,10.86
2023-04-18T17:22:03.024Z,10.75
2023-04-18T17:25:06.092Z,10.68
2023-04-18T17:28:08.222Z,10.74
2023-04-18T17:31:10.136Z,10.71
2023-04-18T17:34:11.985Z,10.77
2023-04-18T17:37:15.838Z,10.79
2023-04-18T17:40:17.790Z,10.79
2023-04-18T17:43:20.012Z,10.68
2023-04-18T17:46:23.737Z,10.75
2023-04-18T17:49:30.867Z,10.60
2023-04-18T17:52:33.101Z,10.49
2023-04-18T17:55:35.487Z,10.58
2023-04-18T17:58:37.563Z,10.66
2023-04-18T18:01:40.022Z,10.76
2023-04-18T18:04:42.222Z,10.74
2023-04-18T18:07:47.593Z,10.71
2023-04-18T18:10:50.816Z,10.74
2023-04-18T18:13:54.945Z,10.71
2023-04-18T18:16:57.344Z,10.69
2023-04-18T18:19:59.593Z,10.66
2023-04-18T18:23:02.325Z,10.64
2023-04-18T18:26:06.606Z,10.61
2023-04-18T18:29:11.875Z,10.58
2023-04-18T18:32:14.996Z,10.54
2023-04-18T18:35:17.222Z,10.65
2023-04-18T18:38:19.705Z,10.47
2023-04-18T18:41:25.284Z,10.55
2023-04-18T18:44:27.271Z,10.57
2023-04-18T18:47:30.639Z,10.59
2023-04-18T18:50:33.852Z,10.55
2023-04-18T18:53:37.734Z,10.43
2023-04-18T18:56:42.691Z,10.50
2023-04-18T18:59:44.984Z,10.50
2023-04-18T19:02:47.503Z,10.39
2023-04-18T19:05:49.710Z,10.41
2023-04-18T19:08:51.889Z,10.35
2023-04-18T19:11:57.071Z,10.32
2023-04-18T19:15:00.583Z,10.30
2023-04-18T19:18:02.775Z,10.27
2023-04-18T19:21:05.423Z,10.26
2023-04-18T19:24:07.862Z,10.21
2023-04-18T19:27:10.470Z,10.13
2023-04-18T19:30:13.897Z,10.16
2023-04-18T19:33:20.050Z,10.11
2023-04-18T19:36:28.829Z,10.05
2023-04-18T19:39:31.537Z,10.13
2023-04-18T19:42:33.818Z,10.11
2023-04-18T19:45:36.261Z,10.17
2023-04-18T19:48:38.254Z,10.15
2023-04-18T19:51:40.976Z,10.10
2023-04-18T19:54:43.222Z,10.08
2023-04-18T19:57:45.941Z,10.00
2023-04-18T20:00:48.212Z,9.91
2023-04-18T20:03:51.372Z,9.92
2023-04-18T20:06:54.312Z,9.90
2023-04-18T20:09:57.182Z,9.91
2023-04-18T20:12:59.447Z,9.88
2023-04-18T20:16:01.837Z,9.91
2023-04-18T20:19:05.813Z,9.92
2023-04-18T20:22:08.201Z,9.81
2023-04-18T20:25:10.814Z,9.83
2023-04-18T20:28:13.437Z,9.67
2023-04-18T20:31:15.903Z,9.71
2023-04-18T20:34:20.566Z,9.71
2023-04-18T20:37:22.848Z,9.58
2023-04-18T20:40:25.728Z,9.56
2023-04-18T20:43:28.143Z,9.58
2023-04-18T20:46:31.269Z,9.61
2023-04-18T20:49:34.210Z,9.63
2023-04-18T20:52:36.612Z,9.60
2023-04-18T20:55:38.876Z,9.52
2023-04-18T20:58:41.951Z,9.44
2023-04-18T21:01:44.322Z,9.53
2023-04-18T21:04:46.931Z,9.56
2023-04-18T21:07:49.370Z,9.55
2023-04-18T21:10:51.412Z,9.50
2023-04-18T21:13:53.299Z,9.48
2023-04-18T21:16:56.199Z,9.46
2023-04-18T21:19:58.084Z,9.45
2023-04-18T21:22:59.981Z,9.43
2023-04-18T21:26:01.862Z,9.41
2023-04-18T21:29:04.930Z,9.46
2023-04-18T21:32:06.822Z,9.39
2023-04-18T21:35:09.075Z,9.46
2023-04-18T21:38:11.121Z,9.48
2023-04-18T21:41:19.148Z,9.38
2023-04-18T21:44:21.321Z,9.43
2023-04-18T21:47:23.296Z,9.41
2023-04-18T21:50:25.394Z,9.40
2023-04-18T21:53:27.330Z,9.30
2023-04-18T21:56:29.206Z,9.41
2023-04-18T21:59:31.586Z,9.42
2023-04-18T22:02:33.654Z,9.36
2023-04-18T22:05:36.289Z,9.31
2023-04-18T22:08:38.848Z,9.36
2023-04-18T22:11:40.799Z,9.35
2023-04-18T22:14:48.200Z,9.43
2023-04-18T22:17:50.479Z,9.29
2023-04-18T22:20:53.926Z,9.23
2023-04-18T22:23:56.177Z,9.29
2023-04-18T22:26:58.119Z,9.30
2023-04-18T22:30:00.106Z,9.29
2023-04-18T22:33:02.204Z,9.22
2023-04-18T22:36:04.598Z,9.36
2023-04-18T22:39:07.494Z,9.15
2023-04-18T22:42:09.410Z,9.07
2023-04-18T22:45:11.369Z,9.08
2023-04-18T22:48:13.437Z,8.99
2023-04-18T22:51:15.431Z,9.00
2023-04-18T22:54:17.582Z,8.93
2023-04-18T22:57:19.696Z,8.83
2023-04-18T23:00:21.825Z,8.82
2023-04-18T23:03:24.089Z,8.85
2023-04-18T23:06:28.005Z,8.76
2023-04-18T23:09:31.163Z,8.72
2023-04-18T23:12:33.141Z,8.72
2023-04-18T23:15:35.287Z,8.74
2023-04-18T23:18:37.424Z,8.68
2023-04-18T23:21:39.394Z,8.64
2023-04-18T23:24:41.327Z,8.58
2023-04-18T23:27:43.346Z,8.46
2023-04-18T23:30:45.243Z,8.47
2023-04-18T23:33:47.136Z,8.47
2023-04-18T23:36:49.102Z,8.36
2023-04-18T23:39:51.655Z,8.42
2023-04-18T23:42:54.641Z,8.36
2023-04-18T23:45:56.965Z,8.26
2023-04-18T23:48:59.269Z,8.28
2023-04-18T23:52:01.324Z,8.19
2023-04-18T23:55:03.328Z,8.29
2023-04-18T23:58:05.244Z,8.29
